sensor_id;sensor_type;location;lat;lon;timestamp;temperature;humidity
16838;DHT22;19510;54.486;9.046;2022-08-11T04:50:16;17.10;99.90
16838;DHT22;19510;54.486;9.046;2022-08-11T04:53:25;17.10;99.90
16838;DHT22;19510;54.486;9.046;2022-08-11T04:56:16;17.20;99.90
16838;DHT22;19510;54.486;9.046;2022-08-11T05:13:46;17.60;99.90
16838;DHT22;19510;54.486;9.046;2022-08-11T05:16:41;17.70;99.90
16838;DHT22;19510;54.486;9.046;2022-08-11T05:19:29;17.70;99.90
16838;DHT22;19510;54.486;9.046;2022-08-11T05:22:17;17.70;99.90
16838;DHT22;19510;54.486;9.046;2022-08-11T05:25:08;17.80;99.90
16838;DHT22;19510;54.486;9.046;2022-08-11T05:28:04;17.80;99.90
16838;DHT22;19510;54.486;9.046;2022-08-11T05:30:57;17.90;99.90
16838;DHT22;19510;54.486;9.046;2022-08-11T05:33:57;17.90;99.90
16838;DHT22;19510;54.486;9.046;2022-08-11T05:39:29;18.10;99.90
16838;DHT22;19510;54.486;9.046;2022-08-11T05:42:16;18.20;99.90
16838;DHT22;19510;54.486;9.046;2022-08-11T05:45:18;18.20;99.90
16838;DHT22;19510;54.486;9.046;2022-08-11T05:48:05;18.20;99.90
16838;DHT22;19510;54.486;9.046;2022-08-11T05:51:00;18.30;99.90
16838;DHT22;19510;54.486;9.046;2022-08-11T05:53:56;18.30;99.90
16838;DHT22;19510;54.486;9.046;2022-08-11T05:56:51;18.40;99.90
16838;DHT22;19510;54.486;9.046;2022-08-11T05:59:18;18.50;99.90
16838;DHT22;19510;54.486;9.046;2022-08-11T06:01:45;18.60;99.90
16838;DHT22;19510;54.486;9.046;2022-08-11T06:04:21;18.70;99.90
16838;DHT22;19510;54.486;9.046;2022-08-11T06:07:09;18.70;99.90
16838;DHT22;19510;54.486;9.046;2022-08-11T06:09:46;18.80;99.90
16838;DHT22;19510;54.486;9.046;2022-08-11T06:12:21;18.70;99.90
16838;DHT22;19510;54.486;9.046;2022-08-11T06:14:51;18.90;99.90
16838;DHT22;19510;54.486;9.046;2022-08-11T06:17:23;18.90;99.90
16838;DHT22;19510;54.486;9.046;2022-08-11T06:19:49;19.00;99.90
16838;DHT22;19510;54.486;9.046;2022-08-11T06:22:21;19.00;99.90
16838;DHT22;19510;54.486;9.046;2022-08-11T06:24:59;19.10;99.90
16838;DHT22;19510;54.486;9.046;2022-08-11T06:27:27;19.20;99.90
16838;DHT22;19510;54.486;9.046;2022-08-11T06:29:54;19.20;99.90
16838;DHT22;19510;54.486;9.046;2022-08-11T06:32:31;19.20;99.90
16838;DHT22;19510;54.486;9.046;2022-08-11T06:41:19;19.50;99.90
16838;DHT22;19510;54.486;9.046;2022-08-11T06:46:37;19.60;99.90
16838;DHT22;19510;54.486;9.046;2022-08-11T06:49:06;19.60;99.90
16838;DHT22;19510;54.486;9.046;2022-08-11T06:51:57;19.70;99.90
16838;DHT22;19510;54.486;9.046;2022-08-11T06:54:26;19.70;99.90
16838;DHT22;19510;54.486;9.046;2022-08-11T06:56:53;19.80;99.90
16838;DHT22;19510;54.486;9.046;2022-08-11T06:59:38;19.90;99.90
16838;DHT22;19510;54.486;9.046;2022-08-11T07:02:30;20.00;99.90
16838;DHT22;19510;54.486;9.046;2022-08-11T07:05:09;20.10;99.90
16838;DHT22;19510;54.486;9.046;2022-08-11T07:08:06;20.10;99.90
16838;DHT22;19510;54.486;9.046;2022-08-11T07:14:28;20.40;99.90
16838;DHT22;19510;54.486;9.046;2022-08-11T07:17:23;20.50;99.90
16838;DHT22;19510;54.486;9.046;2022-08-11T07:19:54;20.50;99.90
16838;DHT22;19510;54.486;9.046;2022-08-11T07:22:40;20.60;99.90
16838;DHT22;19510;54.486;9.046;2022-08-11T07:25:28;20.70;99.90
16838;DHT22;19510;54.486;9.046;2022-08-11T07:28:24;20.70;99.90
16838;DHT22;19510;54.486;9.046;2022-08-11T07:31:31;20.80;99.90
16838;DHT22;19510;54.486;9.046;2022-08-11T07:36:32;21.00;99.90
16838;DHT22;19510;54.486;9.046;2022-08-11T07:39:02;21.00;99.90
16838;DHT22;19510;54.486;9.046;2022-08-11T07:41:28;21.10;99.90
16838;DHT22;19510;54.486;9.046;2022-08-11T07:43:59;21.20;99.90
16838;DHT22;19510;54.486;9.046;2022-08-11T07:46:45;21.20;99.90
16838;DHT22;19510;54.486;9.046;2022-08-11T07:49:35;21.30;99.90
16838;DHT22;19510;54.486;9.046;2022-08-11T07:52:21;21.50;99.90
16838;DHT22;19510;54.486;9.046;2022-08-11T07:55:16;21.50;99.90
16838;DHT22;19510;54.486;9.046;2022-08-11T07:57:47;21.60;99.90
16838;DHT22;19510;54.486;9.046;2022-08-11T08:00:48;21.70;99.90
16838;DHT22;19510;54.486;9.046;2022-08-11T08:03:33;21.80;99.90
16838;DHT22;19510;54.486;9.046;2022-08-11T08:06:18;21.90;99.90
16838;DHT22;19510;54.486;9.046;2022-08-11T08:09:04;22.00;99.90
16838;DHT22;19510;54.486;9.046;2022-08-11T08:11:49;22.10;99.90
16838;DHT22;19510;54.486;9.046;2022-08-11T08:14:34;22.20;99.90
16838;DHT22;19510;54.486;9.046;2022-08-11T08:17:20;22.20;99.90
16838;DHT22;19510;54.486;9.046;2022-08-11T08:20:09;22.40;99.90
16838;DHT22;19510;54.486;9.046;2022-08-11T08:22:36;22.40;99.90
16838;DHT22;19510;54.486;9.046;2022-08-11T08:25:03;22.50;99.90
16838;DHT22;19510;54.486;9.046;2022-08-11T08:27:30;22.50;99.90
16838;DHT22;19510;54.486;9.046;2022-08-11T08:29:59;22.60;99.90
16838;DHT22;19510;54.486;9.046;2022-08-11T08:32:44;22.70;99.90
16838;DHT22;19510;54.486;9.046;2022-08-11T08:35:10;22.80;99.90
16838;DHT22;19510;54.486;9.046;2022-08-11T08:37:36;22.90;99.90
16838;DHT22;19510;54.486;9.046;2022-08-11T08:40:08;22.90;99.90
16838;DHT22;19510;54.486;9.046;2022-08-11T08:42:39;23.00;99.90
16838;DHT22;19510;54.486;9.046;2022-08-11T08:45:08;23.00;99.90
16838;DHT22;19510;54.486;9.046;2022-08-11T08:47:37;23.00;99.90
16838;DHT22;19510;54.486;9.046;2022-08-11T08:50:15;23.10;99.90
16838;DHT22;19510;54.486;9.046;2022-08-11T08:52:59;23.10;99.90
16838;DHT22;19510;54.486;9.046;2022-08-11T08:55:29;23.30;99.90
16838;DHT22;19510;54.486;9.046;2022-08-11T08:57:56;23.30;99.90
16838;DHT22;19510;54.486;9.046;2022-08-11T09:00:25;23.40;99.90
16838;DHT22;19510;54.486;9.046;2022-08-11T09:02:53;23.50;99.90
16838;DHT22;19510;54.486;9.046;2022-08-11T09:05:22;23.50;99.90
16838;DHT22;19510;54.486;9.046;2022-08-11T09:07:53;23.50;99.90
16838;DHT22;19510;54.486;9.046;2022-08-11T09:10:19;23.60;99.90
16838;DHT22;19510;54.486;9.046;2022-08-11T09:12:49;23.70;99.90
16838;DHT22;19510;54.486;9.046;2022-08-11T09:15:17;23.70;99.90
16838;DHT22;19510;54.486;9.046;2022-08-11T09:17:56;23.80;99.90
16838;DHT22;19510;54.486;9.046;2022-08-11T09:20:33;23.80;99.90
16838;DHT22;19510;54.486;9.046;2022-08-11T09:23:05;23.90;99.90
16838;DHT22;19510;54.486;9.046;2022-08-11T09:25:54;24.00;99.90
16838;DHT22;19510;54.486;9.046;2022-08-11T09:28:43;24.10;99.90
16838;DHT22;19510;54.486;9.046;2022-08-11T09:31:10;24.10;99.90
16838;DHT22;19510;54.486;9.046;2022-08-11T09:33:40;24.20;99.90
16838;DHT22;19510;54.486;9.046;2022-08-11T09:36:09;24.20;99.90
16838;DHT22;19510;54.486;9.046;2022-08-11T09:38:55;24.20;99.90
16838;DHT22;19510;54.486;9.046;2022-08-11T09:41:43;24.20;99.90
16838;DHT22;19510;54.486;9.046;2022-08-11T09:44:09;24.20;99.90
16838;DHT22;19510;54.486;9.046;2022-08-11T09:46:55;24.30;99.90
16838;DHT22;19510;54.486;9.046;2022-08-11T09:49:23;24.30;99.90
16838;DHT22;19510;54.486;9.046;2022-08-11T09:51:50;24.40;99.90
16838;DHT22;19510;54.486;9.046;2022-08-11T09:54:17;24.40;99.90
16838;DHT22;19510;54.486;9.046;2022-08-11T09:56:44;24.50;99.90
16838;DHT22;19510;54.486;9.046;2022-08-11T09:59:28;24.60;99.90
16838;DHT22;19510;54.486;9.046;2022-08-11T10:02:01;24.70;99.90
16838;DHT22;19510;54.486;9.046;2022-08-11T10:04:40;24.80;99.90
16838;DHT22;19510;54.486;9.046;2022-08-11T10:07:07;24.90;99.90
16838;DHT22;19510;54.486;9.046;2022-08-11T10:15:00;25.30;99.90
16838;DHT22;19510;54.486;9.046;2022-08-11T10:17:47;25.40;99.90
16838;DHT22;19510;54.486;9.046;2022-08-11T10:20:34;25.50;99.90
16838;DHT22;19510;54.486;9.046;2022-08-11T10:23:02;25.60;99.90
16838;DHT22;19510;54.486;9.046;2022-08-11T10:25:46;25.80;99.90
16838;DHT22;19510;54.486;9.046;2022-08-11T10:28:34;25.90;99.90
16838;DHT22;19510;54.486;9.046;2022-08-11T10:31:00;26.00;99.90
16838;DHT22;19510;54.486;9.046;2022-08-11T10:33:47;26.00;99.90
16838;DHT22;19510;54.486;9.046;2022-08-11T10:36:40;26.00;99.90
16838;DHT22;19510;54.486;9.046;2022-08-11T10:39:19;26.10;99.90
16838;DHT22;19510;54.486;9.046;2022-08-11T10:41:48;26.20;99.90
16838;DHT22;19510;54.486;9.046;2022-08-11T10:44:41;26.20;99.90
16838;DHT22;19510;54.486;9.046;2022-08-11T10:47:13;26.50;99.90
16838;DHT22;19510;54.486;9.046;2022-08-11T10:49:58;26.60;99.90
16838;DHT22;19510;54.486;9.046;2022-08-11T10:52:47;26.80;99.90
16838;DHT22;19510;54.486;9.046;2022-08-11T10:55:31;26.90;99.90
16838;DHT22;19510;54.486;9.046;2022-08-11T10:58:17;27.00;99.90
16838;DHT22;19510;54.486;9.046;2022-08-11T11:01:02;27.10;99.90
16838;DHT22;19510;54.486;9.046;2022-08-11T11:03:29;27.10;99.90
16838;DHT22;19510;54.486;9.046;2022-08-11T11:06:08;27.30;99.90
16838;DHT22;19510;54.486;9.046;2022-08-11T11:08:41;27.40;99.90
16838;DHT22;19510;54.486;9.046;2022-08-11T11:11:24;27.60;99.90
16838;DHT22;19510;54.486;9.046;2022-08-11T11:14:11;27.70;99.90
16838;DHT22;19510;54.486;9.046;2022-08-11T11:17:06;27.90;99.90
16838;DHT22;19510;54.486;9.046;2022-08-11T11:19:43;27.90;99.90
16838;DHT22;19510;54.486;9.046;2022-08-11T11:22:14;28.00;99.90
16838;DHT22;19510;54.486;9.046;2022-08-11T11:27:59;28.30;99.90
16838;DHT22;19510;54.486;9.046;2022-08-11T11:30:40;28.40;99.90
16838;DHT22;19510;54.486;9.046;2022-08-11T11:33:22;28.60;99.90
16838;DHT22;19510;54.486;9.046;2022-08-11T11:36:14;28.70;99.90
16838;DHT22;19510;54.486;9.046;2022-08-11T11:38:46;28.90;99.90
16838;DHT22;19510;54.486;9.046;2022-08-11T11:41:12;29.20;99.90
16838;DHT22;19510;54.486;9.046;2022-08-11T11:43:52;29.30;99.90
16838;DHT22;19510;54.486;9.046;2022-08-11T11:46:23;29.30;99.90
16838;DHT22;19510;54.486;9.046;2022-08-11T11:48:49;29.40;99.90
16838;DHT22;19510;54.486;9.046;2022-08-11T11:51:18;29.50;99.90
16838;DHT22;19510;54.486;9.046;2022-08-11T11:53:47;29.50;99.90
16838;DHT22;19510;54.486;9.046;2022-08-11T11:56:14;29.60;99.90
16838;DHT22;19510;54.486;9.046;2022-08-11T11:58:40;29.70;99.90
16838;DHT22;19510;54.486;9.046;2022-08-11T12:01:26;29.80;99.90
16838;DHT22;19510;54.486;9.046;2022-08-11T12:03:53;29.80;99.90
16838;DHT22;19510;54.486;9.046;2022-08-11T12:06:23;29.90;99.90
16838;DHT22;19510;54.486;9.046;2022-08-11T12:08:54;30.20;99.90
16838;DHT22;19510;54.486;9.046;2022-08-11T12:11:22;30.30;99.90
16838;DHT22;19510;54.486;9.046;2022-08-11T12:14:09;30.40;99.90
16838;DHT22;19510;54.486;9.046;2022-08-11T12:16:39;30.60;99.90
16838;DHT22;19510;54.486;9.046;2022-08-11T12:19:17;30.60;99.90
16838;DHT22;19510;54.486;9.046;2022-08-11T12:21:48;30.70;99.90
16838;DHT22;19510;54.486;9.046;2022-08-11T12:24:34;30.90;99.90
16838;DHT22;19510;54.486;9.046;2022-08-11T12:27:20;31.00;99.90
16838;DHT22;19510;54.486;9.046;2022-08-11T12:30:00;31.00;99.90
16838;DHT22;19510;54.486;9.046;2022-08-11T12:32:31;31.20;99.90
16838;DHT22;19510;54.486;9.046;2022-08-11T12:34:58;31.20;99.90
16838;DHT22;19510;54.486;9.046;2022-08-11T12:37:31;31.50;99.90
16838;DHT22;19510;54.486;9.046;2022-08-11T12:40:00;31.80;99.90
16838;DHT22;19510;54.486;9.046;2022-08-11T12:42:45;32.00;99.90
16838;DHT22;19510;54.486;9.046;2022-08-11T12:45:30;32.10;99.90
16838;DHT22;19510;54.486;9.046;2022-08-11T12:48:10;32.20;99.90
16838;DHT22;19510;54.486;9.046;2022-08-11T12:51:01;32.40;99.90
16838;DHT22;19510;54.486;9.046;2022-08-11T12:54:15;32.60;99.90
16838;DHT22;19510;54.486;9.046;2022-08-11T12:56:49;32.70;99.90
16838;DHT22;19510;54.486;9.046;2022-08-11T12:59:38;32.70;99.90
16838;DHT22;19510;54.486;9.046;2022-08-11T13:02:23;32.80;99.90
16838;DHT22;19510;54.486;9.046;2022-08-11T13:05:12;32.90;99.80
16838;DHT22;19510;54.486;9.046;2022-08-11T13:07:42;32.90;99.80
16838;DHT22;19510;54.486;9.046;2022-08-11T13:10:09;33.00;99.50
16838;DHT22;19510;54.486;9.046;2022-08-11T13:12:35;33.00;99.80
16838;DHT22;19510;54.486;9.046;2022-08-11T13:15:19;33.30;99.40
16838;DHT22;19510;54.486;9.046;2022-08-11T13:17:50;33.20;99.50
16838;DHT22;19510;54.486;9.046;2022-08-11T13:20:22;33.40;99.10
16838;DHT22;19510;54.486;9.046;2022-08-11T13:22:51;33.40;99.20
16838;DHT22;19510;54.486;9.046;2022-08-11T13:25:22;33.30;99.40
16838;DHT22;19510;54.486;9.046;2022-08-11T13:27:55;33.20;98.90
16838;DHT22;19510;54.486;9.046;2022-08-11T13:30:24;33.30;99.20
16838;DHT22;19510;54.486;9.046;2022-08-11T13:33:09;33.40;98.80
16838;DHT22;19510;54.486;9.046;2022-08-11T13:35:36;33.40;97.50
16838;DHT22;19510;54.486;9.046;2022-08-11T13:38:03;33.40;97.90
16838;DHT22;19510;54.486;9.046;2022-08-11T13:40:30;33.30;98.30
16838;DHT22;19510;54.486;9.046;2022-08-11T13:42:59;33.50;97.90
16838;DHT22;19510;54.486;9.046;2022-08-11T13:45:26;33.60;96.90
16838;DHT22;19510;54.486;9.046;2022-08-11T13:47:57;33.70;97.10
16838;DHT22;19510;54.486;9.046;2022-08-11T13:50:26;33.60;97.30
16838;DHT22;19510;54.486;9.046;2022-08-11T13:53:19;33.20;97.90
16838;DHT22;19510;54.486;9.046;2022-08-11T13:55:46;33.40;97.10
16838;DHT22;19510;54.486;9.046;2022-08-11T13:58:12;33.60;97.30
16838;DHT22;19510;54.486;9.046;2022-08-11T14:00:42;33.40;98.20
16838;DHT22;19510;54.486;9.046;2022-08-11T14:03:12;33.60;97.30
16838;DHT22;19510;54.486;9.046;2022-08-11T14:05:45;33.70;97.20
16838;DHT22;19510;54.486;9.046;2022-08-11T14:08:15;33.80;96.70
16838;DHT22;19510;54.486;9.046;2022-08-11T14:10:44;33.90;97.00
16838;DHT22;19510;54.486;9.046;2022-08-11T14:13:15;33.90;96.50
16838;DHT22;19510;54.486;9.046;2022-08-11T14:16:11;34.00;96.20
16838;DHT22;19510;54.486;9.046;2022-08-11T14:18:44;34.00;96.50
16838;DHT22;19510;54.486;9.046;2022-08-11T14:21:14;34.00;96.30
16838;DHT22;19510;54.486;9.046;2022-08-11T14:24:00;34.00;96.10
16838;DHT22;19510;54.486;9.046;2022-08-11T14:26:27;34.10;96.70
16838;DHT22;19510;54.486;9.046;2022-08-11T14:29:03;34.20;95.80
16838;DHT22;19510;54.486;9.046;2022-08-11T14:31:31;34.30;96.30
16838;DHT22;19510;54.486;9.046;2022-08-11T14:34:01;34.30;96.00
16838;DHT22;19510;54.486;9.046;2022-08-11T14:36:33;34.30;96.40
16838;DHT22;19510;54.486;9.046;2022-08-11T14:39:02;34.30;97.60
16838;DHT22;19510;54.486;9.046;2022-08-11T14:41:29;34.10;99.90
16838;DHT22;19510;54.486;9.046;2022-08-11T14:44:14;34.10;99.90
16838;DHT22;19510;54.486;9.046;2022-08-11T14:47:00;33.80;99.90
16838;DHT22;19510;54.486;9.046;2022-08-11T14:49:36;33.70;99.90
16838;DHT22;19510;54.486;9.046;2022-08-11T14:52:06;33.80;97.90
16838;DHT22;19510;54.486;9.046;2022-08-11T14:54:33;33.90;98.10
16838;DHT22;19510;54.486;9.046;2022-08-11T14:57:19;34.00;99.30
16838;DHT22;19510;54.486;9.046;2022-08-11T14:59:48;34.10;99.20
16838;DHT22;19510;54.486;9.046;2022-08-11T15:02:15;34.20;98.60
16838;DHT22;19510;54.486;9.046;2022-08-11T15:05:00;34.00;99.90
16838;DHT22;19510;54.486;9.046;2022-08-11T15:07:27;33.40;99.90
16838;DHT22;19510;54.486;9.046;2022-08-11T15:10:05;33.00;99.90
16838;DHT22;19510;54.486;9.046;2022-08-11T15:12:33;32.70;99.90
16838;DHT22;19510;54.486;9.046;2022-08-11T15:15:04;32.90;99.90
16838;DHT22;19510;54.486;9.046;2022-08-11T15:17:52;33.30;99.90
16838;DHT22;19510;54.486;9.046;2022-08-11T15:20:19;33.30;99.90
16838;DHT22;19510;54.486;9.046;2022-08-11T15:23:04;33.30;99.90
16838;DHT22;19510;54.486;9.046;2022-08-11T15:26:32;33.40;99.90
16838;DHT22;19510;54.486;9.046;2022-08-11T15:28:51;33.00;99.90
16838;DHT22;19510;54.486;9.046;2022-08-11T15:31:37;33.00;99.90
16838;DHT22;19510;54.486;9.046;2022-08-11T15:34:25;33.00;99.90
16838;DHT22;19510;54.486;9.046;2022-08-11T15:37:14;33.00;99.90
16838;DHT22;19510;54.486;9.046;2022-08-11T15:43:24;32.70;99.90
16838;DHT22;19510;54.486;9.046;2022-08-11T15:46:24;32.90;99.90
16838;DHT22;19510;54.486;9.046;2022-08-11T15:49:02;33.00;99.90
16838;DHT22;19510;54.486;9.046;2022-08-11T15:51:39;32.80;99.90
16838;DHT22;19510;54.486;9.046;2022-08-11T15:54:26;32.60;99.90
16838;DHT22;19510;54.486;9.046;2022-08-11T15:56:57;32.20;99.90
16838;DHT22;19510;54.486;9.046;2022-08-11T15:59:24;31.60;99.90
16838;DHT22;19510;54.486;9.046;2022-08-11T16:02:13;31.50;99.90
16838;DHT22;19510;54.486;9.046;2022-08-11T16:05:01;31.40;99.90
16838;DHT22;19510;54.486;9.046;2022-08-11T16:07:32;31.00;99.90
16838;DHT22;19510;54.486;9.046;2022-08-11T16:10:08;30.60;99.90
16838;DHT22;19510;54.486;9.046;2022-08-11T16:13:02;30.50;99.90
16838;DHT22;19510;54.486;9.046;2022-08-11T16:15:46;30.40;99.90
16838;DHT22;19510;54.486;9.046;2022-08-11T16:18:40;30.10;99.90
16838;DHT22;19510;54.486;9.046;2022-08-11T16:21:13;29.90;99.90
16838;DHT22;19510;54.486;9.046;2022-08-11T16:23:47;29.80;99.90
16838;DHT22;19510;54.486;9.046;2022-08-11T16:26:19;29.80;99.90
16838;DHT22;19510;54.486;9.046;2022-08-11T16:28:54;29.70;99.90
16838;DHT22;19510;54.486;9.046;2022-08-11T16:31:23;29.70;99.90
16838;DHT22;19510;54.486;9.046;2022-08-11T16:33:51;29.60;99.90
16838;DHT22;19510;54.486;9.046;2022-08-11T16:36:24;29.50;99.90
16838;DHT22;19510;54.486;9.046;2022-08-11T16:39:12;29.30;99.90
16838;DHT22;19510;54.486;9.046;2022-08-11T16:41:43;29.20;99.90
16838;DHT22;19510;54.486;9.046;2022-08-11T16:44:28;29.10;99.90
16838;DHT22;19510;54.486;9.046;2022-08-11T16:47:18;29.10;99.90
16838;DHT22;19510;54.486;9.046;2022-08-11T16:49:54;29.10;99.90
16838;DHT22;19510;54.486;9.046;2022-08-11T16:52:22;29.00;99.90
16838;DHT22;19510;54.486;9.046;2022-08-11T16:54:49;29.00;99.90
16838;DHT22;19510;54.486;9.046;2022-08-11T16:57:20;28.90;99.90
16838;DHT22;19510;54.486;9.046;2022-08-11T17:00:07;28.90;99.90
16838;DHT22;19510;54.486;9.046;2022-08-11T17:02:40;28.80;99.90
16838;DHT22;19510;54.486;9.046;2022-08-11T17:05:25;28.70;99.90
16838;DHT22;19510;54.486;9.046;2022-08-11T17:08:11;28.60;99.90
16838;DHT22;19510;54.486;9.046;2022-08-11T17:10:57;28.60;99.90
16838;DHT22;19510;54.486;9.046;2022-08-11T17:13:51;28.50;99.90
16838;DHT22;19510;54.486;9.046;2022-08-11T17:16:24;28.40;99.90
16838;DHT22;19510;54.486;9.046;2022-08-11T17:19:05;28.30;99.90
16838;DHT22;19510;54.486;9.046;2022-08-11T17:21:39;28.30;99.90
16838;DHT22;19510;54.486;9.046;2022-08-11T17:24:27;28.30;99.90
16838;DHT22;19510;54.486;9.046;2022-08-11T17:26:59;28.20;99.90
16838;DHT22;19510;54.486;9.046;2022-08-11T17:29:39;28.10;99.90
16838;DHT22;19510;54.486;9.046;2022-08-11T17:32:08;28.00;99.90
16838;DHT22;19510;54.486;9.046;2022-08-11T17:35:02;28.00;99.90
16838;DHT22;19510;54.486;9.046;2022-08-11T17:37:47;27.90;99.90
16838;DHT22;19510;54.486;9.046;2022-08-11T17:40:20;27.80;99.90
16838;DHT22;19510;54.486;9.046;2022-08-11T17:42:56;27.70;99.90
16838;DHT22;19510;54.486;9.046;2022-08-11T17:45:43;27.70;99.90
16838;DHT22;19510;54.486;9.046;2022-08-11T17:48:33;27.70;99.90
16838;DHT22;19510;54.486;9.046;2022-08-11T17:51:24;27.50;99.90
16838;DHT22;19510;54.486;9.046;2022-08-11T17:54:08;27.40;99.90
16838;DHT22;19510;54.486;9.046;2022-08-11T17:56:54;27.30;99.90
16838;DHT22;19510;54.486;9.046;2022-08-11T17:59:39;27.20;99.90
16838;DHT22;19510;54.486;9.046;2022-08-11T18:02:33;27.10;99.90
16838;DHT22;19510;54.486;9.046;2022-08-11T18:05:19;27.10;99.90
16838;DHT22;19510;54.486;9.046;2022-08-11T18:07:48;27.00;99.90
16838;DHT22;19510;54.486;9.046;2022-08-11T18:10:34;27.00;99.90
16838;DHT22;19510;54.486;9.046;2022-08-11T18:13:21;26.90;99.90
16838;DHT22;19510;54.486;9.046;2022-08-11T18:16:06;26.90;99.90
16838;DHT22;19510;54.486;9.046;2022-08-11T18:18:51;26.80;99.90
16838;DHT22;19510;54.486;9.046;2022-08-11T18:21:41;26.80;99.90
16838;DHT22;19510;54.486;9.046;2022-08-11T18:24:29;26.70;99.90
16838;DHT22;19510;54.486;9.046;2022-08-11T18:27:15;26.60;99.90
16838;DHT22;19510;54.486;9.046;2022-08-11T18:30:02;26.50;99.90
16838;DHT22;19510;54.486;9.046;2022-08-11T18:32:47;26.50;99.90
16838;DHT22;19510;54.486;9.046;2022-08-11T18:35:34;26.50;99.90
16838;DHT22;19510;54.486;9.046;2022-08-11T18:38:20;26.40;99.90
16838;DHT22;19510;54.486;9.046;2022-08-11T18:41:07;26.30;99.90
16838;DHT22;19510;54.486;9.046;2022-08-11T18:43:55;26.10;99.90
16838;DHT22;19510;54.486;9.046;2022-08-11T18:46:43;26.10;99.90
16838;DHT22;19510;54.486;9.046;2022-08-11T18:49:34;26.00;99.90
16838;DHT22;19510;54.486;9.046;2022-08-11T18:52:19;25.90;99.90
16838;DHT22;19510;54.486;9.046;2022-08-11T18:55:08;25.80;99.90
16838;DHT22;19510;54.486;9.046;2022-08-11T18:57:55;25.80;99.90
16838;DHT22;19510;54.486;9.046;2022-08-11T19:00:41;25.70;99.90
16838;DHT22;19510;54.486;9.046;2022-08-11T19:03:30;25.60;99.90
16838;DHT22;19510;54.486;9.046;2022-08-11T19:06:17;25.50;99.90
16838;DHT22;19510;54.486;9.046;2022-08-11T19:09:06;25.40;99.90
16838;DHT22;19510;54.486;9.046;2022-08-11T19:11:52;25.40;99.90
16838;DHT22;19510;54.486;9.046;2022-08-11T19:14:39;25.30;99.90
16838;DHT22;19510;54.486;9.046;2022-08-11T19:17:24;25.30;99.90
16838;DHT22;19510;54.486;9.046;2022-08-11T19:20:18;25.20;99.90
16838;DHT22;19510;54.486;9.046;2022-08-11T19:23:05;25.10;99.90
16838;DHT22;19510;54.486;9.046;2022-08-11T19:25:50;25.00;99.90
16838;DHT22;19510;54.486;9.046;2022-08-11T19:28:35;25.00;99.90
16838;DHT22;19510;54.486;9.046;2022-08-11T19:31:21;24.90;99.90
16838;DHT22;19510;54.486;9.046;2022-08-11T19:34:07;24.80;99.90
16838;DHT22;19510;54.486;9.046;2022-08-11T19:36:52;24.80;99.90
16838;DHT22;19510;54.486;9.046;2022-08-11T19:39:39;24.70;99.90
16838;DHT22;19510;54.486;9.046;2022-08-11T19:42:29;24.60;99.90
16838;DHT22;19510;54.486;9.046;2022-08-11T19:45:14;24.50;99.90
16838;DHT22;19510;54.486;9.046;2022-08-11T19:48:01;24.50;99.90
16838;DHT22;19510;54.486;9.046;2022-08-11T19:50:45;24.40;99.90
16838;DHT22;19510;54.486;9.046;2022-08-11T19:53:32;24.40;99.90
16838;DHT22;19510;54.486;9.046;2022-08-11T19:56:17;24.30;99.90
16838;DHT22;19510;54.486;9.046;2022-08-11T19:59:02;24.20;99.90
16838;DHT22;19510;54.486;9.046;2022-08-11T20:01:47;24.10;99.90
16838;DHT22;19510;54.486;9.046;2022-08-11T20:04:31;24.00;99.90
16838;DHT22;19510;54.486;9.046;2022-08-11T20:07:15;23.90;99.90
16838;DHT22;19510;54.486;9.046;2022-08-11T20:10:03;23.80;99.90
16838;DHT22;19510;54.486;9.046;2022-08-11T20:12:48;23.80;99.90
16838;DHT22;19510;54.486;9.046;2022-08-11T20:15:33;23.80;99.90
16838;DHT22;19510;54.486;9.046;2022-08-11T20:18:19;23.70;99.90
16838;DHT22;19510;54.486;9.046;2022-08-11T20:21:04;23.70;99.90
16838;DHT22;19510;54.486;9.046;2022-08-11T20:23:49;23.60;99.90
16838;DHT22;19510;54.486;9.046;2022-08-11T20:26:35;23.70;99.90
16838;DHT22;19510;54.486;9.046;2022-08-11T20:29:25;23.70;99.90
16838;DHT22;19510;54.486;9.046;2022-08-11T20:32:14;23.60;99.90
16838;DHT22;19510;54.486;9.046;2022-08-11T20:34:59;23.60;99.90
16838;DHT22;19510;54.486;9.046;2022-08-11T20:37:45;23.40;99.90
16838;DHT22;19510;54.486;9.046;2022-08-11T20:40:33;23.40;99.90
16838;DHT22;19510;54.486;9.046;2022-08-11T20:43:19;23.40;99.90
16838;DHT22;19510;54.486;9.046;2022-08-11T20:46:05;23.30;99.90
16838;DHT22;19510;54.486;9.046;2022-08-11T20:48:51;23.20;99.90
16838;DHT22;19510;54.486;9.046;2022-08-11T20:51:37;23.10;99.90
16838;DHT22;19510;54.486;9.046;2022-08-11T20:54:22;23.10;99.90
16838;DHT22;19510;54.486;9.046;2022-08-11T20:57:09;23.00;99.90
16838;DHT22;19510;54.486;9.046;2022-08-11T20:59:54;22.90;99.90
16838;DHT22;19510;54.486;9.046;2022-08-11T21:02:39;22.80;99.90
16838;DHT22;19510;54.486;9.046;2022-08-11T21:05:27;22.70;99.90
16838;DHT22;19510;54.486;9.046;2022-08-11T21:08:12;22.60;99.90
16838;DHT22;19510;54.486;9.046;2022-08-11T21:10:57;22.60;99.90
16838;DHT22;19510;54.486;9.046;2022-08-11T21:13:42;22.50;99.90
16838;DHT22;19510;54.486;9.046;2022-08-11T21:16:33;22.40;99.90
16838;DHT22;19510;54.486;9.046;2022-08-11T21:19:31;22.30;99.90
16838;DHT22;19510;54.486;9.046;2022-08-11T21:22:18;22.20;99.90
16838;DHT22;19510;54.486;9.046;2022-08-11T21:25:07;22.10;99.90
16838;DHT22;19510;54.486;9.046;2022-08-11T21:27:57;22.10;99.90
16838;DHT22;19510;54.486;9.046;2022-08-11T21:30:42;22.10;99.90
16838;DHT22;19510;54.486;9.046;2022-08-11T21:33:30;22.00;99.90
16838;DHT22;19510;54.486;9.046;2022-08-11T21:36:15;22.00;99.90
16838;DHT22;19510;54.486;9.046;2022-08-11T21:39:06;21.90;99.90
16838;DHT22;19510;54.486;9.046;2022-08-11T21:41:53;21.90;99.90
16838;DHT22;19510;54.486;9.046;2022-08-11T21:44:40;21.90;99.90
16838;DHT22;19510;54.486;9.046;2022-08-11T21:47:29;21.80;99.90
16838;DHT22;19510;54.486;9.046;2022-08-11T21:50:14;21.80;99.90
16838;DHT22;19510;54.486;9.046;2022-08-11T21:53:00;21.80;99.90
16838;DHT22;19510;54.486;9.046;2022-08-11T21:55:45;21.70;99.90
16838;DHT22;19510;54.486;9.046;2022-08-11T21:58:30;21.70;99.90
16838;DHT22;19510;54.486;9.046;2022-08-11T22:01:15;21.70;99.90
16838;DHT22;19510;54.486;9.046;2022-08-11T22:04:02;21.60;99.90
16838;DHT22;19510;54.486;9.046;2022-08-11T22:06:47;21.60;99.90
16838;DHT22;19510;54.486;9.046;2022-08-11T22:09:35;21.50;99.90
16838;DHT22;19510;54.486;9.046;2022-08-11T22:12:20;21.40;99.90
16838;DHT22;19510;54.486;9.046;2022-08-11T22:15:05;21.40;99.90
16838;DHT22;19510;54.486;9.046;2022-08-11T22:17:50;21.40;99.90
